Time;durP1;ratioP1;P1;durP2;ratioP2;P2;SDS_P1;SDS_P2;PMS_P1;PMS_P2;Temp;Humidity;BMP_temperature;BMP_pressure;BME280_temperature;BME280_humidity;BME280_pressure;Samples;Min_cycle;Max_cycle;Signal;HPM_P1;HPM_P2
2023/04/25 00:01:51;;;;;;;17.65;10.02;;;;;;;;;;5043160;28;20013;-70
2023/04/25 00:04:17;;;;;;;14.18;9.95;;;;;;;;;;5041924;28;20021;-71
2023/04/25 00:06:44;;;;;;;20.50;11.43;;;;;;;;;;5041808;28;20024;-72
2023/04/25 00:09:11;;;;;;;46.75;31.02;;;;;;;;;;5043125;28;20045;-71
2023/04/25 00:11:37;;;;;;;46.47;30.92;;;;;;;;;;5041892;28;20020;-71
2023/04/25 00:14:06;;;;;;;41.88;28.42;;;;;;;;;;5041715;28;20374;-70
2023/04/25 00:16:33;;;;;;;32.60;21.65;;;;;;;;;;5043119;28;20067;-74
2023/04/25 00:19:01;;;;;;;28.73;16.02;;;;;;;;;;5045726;28;20037;-71
2023/04/25 00:21:28;;;;;;;23.38;12.82;;;;;;;;;;5044848;28;20023;-71
2023/04/25 00:23:55;;;;;;;16.63;10.43;;;;;;;;;;5046672;28;20481;-71
2023/04/25 00:26:21;;;;;;;23.67;16.35;;;;;;;;;;5045752;28;20033;-71
2023/04/25 00:28:48;;;;;;;19.73;12.25;;;;;;;;;;5044735;28;20370;-71
2023/04/25 00:31:15;;;;;;;15.25;8.98;;;;;;;;;;5046510;28;20021;-72
2023/04/25 00:33:42;;;;;;;14.65;8.57;;;;;;;;;;5045583;28;20021;-70
2023/04/25 00:36:09;;;;;;;13.77;9.85;;;;;;;;;;5044614;28;20032;-71
2023/04/25 00:38:35;;;;;;;15.25;9.40;;;;;;;;;;5046164;28;20013;-71
2023/04/25 00:41:02;;;;;;;17.33;12.23;;;;;;;;;;5045499;28;20029;-70
2023/04/25 00:43:29;;;;;;;23.42;16.02;;;;;;;;;;5044562;28;20079;-70
2023/04/25 00:45:57;;;;;;;17.77;11.55;;;;;;;;;;5044613;28;20100;-70
2023/04/25 00:48:24;;;;;;;21.83;11.43;;;;;;;;;;5045250;28;20016;-69
2023/04/25 00:50:55;;;;;;;15.43;10.55;;;;;;;;;;5037519;28;20021;-69
2023/04/25 00:53:22;;;;;;;16.23;10.02;;;;;;;;;;5036100;28;20013;-70
2023/04/25 00:55:50;;;;;;;14.20;9.63;;;;;;;;;;5036311;28;20038;-71
2023/04/25 00:58:18;;;;;;;14.02;9.60;;;;;;;;;;5036133;28;20069;-70
2023/04/25 01:00:46;;;;;;;18.52;10.50;;;;;;;;;;5035881;28;20021;-69
2023/04/25 01:03:15;;;;;;;17.58;12.27;;;;;;;;;;5036379;28;20025;-69
2023/04/25 01:05:43;;;;;;;32.55;16.52;;;;;;;;;;5035894;28;20433;-70
2023/04/25 01:08:09;;;;;;;26.73;14.00;;;;;;;;;;5035875;28;20071;-73
2023/04/25 01:10:36;;;;;;;22.13;13.02;;;;;;;;;;5035842;28;20018;-73
2023/04/25 01:13:03;;;;;;;24.70;12.43;;;;;;;;;;5035788;28;20128;-69
2023/04/25 01:15:30;;;;;;;24.67;13.07;;;;;;;;;;5035580;28;20100;-70
2023/04/25 01:17:58;;;;;;;24.08;12.48;;;;;;;;;;5035557;28;20494;-70
2023/04/25 01:20:26;;;;;;;25.13;14.43;;;;;;;;;;5035588;28;20364;-74
2023/04/25 01:22:53;;;;;;;24.17;13.68;;;;;;;;;;5035385;28;20022;-70
2023/04/25 01:25:20;;;;;;;27.77;14.20;;;;;;;;;;5035556;28;20022;-75
2023/04/25 01:27:47;;;;;;;30.20;14.15;;;;;;;;;;5034933;28;20045;-71
2023/04/25 01:30:14;;;;;;;31.70;15.45;;;;;;;;;;5035422;28;20097;-68
2023/04/25 01:32:41;;;;;;;26.48;14.70;;;;;;;;;;5035538;28;20045;-69
2023/04/25 01:35:09;;;;;;;33.42;16.58;;;;;;;;;;5035750;28;20551;-71
2023/04/25 01:37:39;;;;;;;34.10;17.23;;;;;;;;;;5036120;28;20029;-67
2023/04/25 01:40:07;;;;;;;34.63;15.82;;;;;;;;;;5035989;28;20029;-69
2023/04/25 01:42:35;;;;;;;30.00;15.32;;;;;;;;;;5050450;28;20023;-68
2023/04/25 01:45:02;;;;;;;34.30;16.58;;;;;;;;;;5051940;28;20485;-68
2023/04/25 01:47:29;;;;;;;27.33;16.67;;;;;;;;;;5052471;28;20029;-68
2023/04/25 01:49:55;;;;;;;31.40;17.42;;;;;;;;;;5036585;28;20029;-68
2023/04/25 01:52:22;;;;;;;32.50;18.45;;;;;;;;;;5036633;28;20448;-69
2023/04/25 01:54:49;;;;;;;36.50;19.60;;;;;;;;;;5036660;28;20025;-71
2023/04/25 01:57:16;;;;;;;36.63;22.30;;;;;;;;;;5036503;28;20029;-68
2023/04/25 01:59:43;;;;;;;37.95;24.33;;;;;;;;;;5036523;28;20431;-69
2023/04/25 02:02:09;;;;;;;35.13;23.42;;;;;;;;;;5036556;28;20017;-69
2023/04/25 02:04:36;;;;;;;40.63;27.73;;;;;;;;;;5036559;28;20378;-70
2023/04/25 02:07:03;;;;;;;45.63;28.67;;;;;;;;;;5035491;28;20474;-69
2023/04/25 02:09:29;;;;;;;41.13;28.95;;;;;;;;;;5035781;28;20097;-69
2023/04/25 02:11:56;;;;;;;46.80;30.23;;;;;;;;;;5035818;28;20505;-68
2023/04/25 02:14:22;;;;;;;38.08;25.35;;;;;;;;;;5035488;28;20033;-69
2023/04/25 02:16:51;;;;;;;44.80;27.45;;;;;;;;;;5035678;28;20029;-69
2023/04/25 02:19:17;;;;;;;35.30;25.38;;;;;;;;;;5035448;28;20070;-69
2023/04/25 02:21:44;;;;;;;53.53;35.53;;;;;;;;;;5035542;28;20021;-69
2023/04/25 02:24:10;;;;;;;105.85;70.45;;;;;;;;;;5039324;28;20029;-68
2023/04/25 02:26:37;;;;;;;85.45;59.20;;;;;;;;;;5035484;28;20083;-69
2023/04/25 02:29:04;;;;;;;33.40;22.02;;;;;;;;;;5035260;28;20092;-69
2023/04/25 02:31:31;;;;;;;46.67;32.22;;;;;;;;;;5035201;28;20051;-69
2023/04/25 02:33:57;;;;;;;62.45;44.85;;;;;;;;;;5035089;28;20026;-70
2023/04/25 02:36:24;;;;;;;39.80;29.98;;;;;;;;;;5035795;28;20523;-68
2023/04/25 02:38:51;;;;;;;35.08;24.35;;;;;;;;;;5041433;28;20033;-70
2023/04/25 02:41:18;;;;;;;30.63;20.90;;;;;;;;;;5048697;28;20105;-69
2023/04/25 02:43:45;;;;;;;32.00;21.30;;;;;;;;;;5047019;28;20034;-70
2023/04/25 02:46:11;;;;;;;36.13;21.63;;;;;;;;;;5049133;28;20032;-67
2023/04/25 02:48:38;;;;;;;40.67;23.20;;;;;;;;;;5043922;28;20021;-68
2023/04/25 02:51:04;;;;;;;45.97;22.23;;;;;;;;;;5044600;28;20202;-72
2023/04/25 02:53:31;;;;;;;38.72;20.00;;;;;;;;;;5042241;28;20351;-71
2023/04/25 02:55:59;;;;;;;49.28;20.63;;;;;;;;;;5037822;28;20100;-70
2023/04/25 02:58:25;;;;;;;43.65;19.17;;;;;;;;;;5037550;28;20018;-71
2023/04/25 03:00:52;;;;;;;42.00;19.88;;;;;;;;;;5040344;28;20041;-71
2023/04/25 03:03:21;;;;;;;37.10;18.13;;;;;;;;;;5044084;28;20037;-69
2023/04/25 03:05:50;;;;;;;43.70;19.05;;;;;;;;;;5046609;28;20500;-70
2023/04/25 03:08:17;;;;;;;40.55;18.33;;;;;;;;;;5021593;28;20394;-70
2023/04/25 03:10:44;;;;;;;43.28;16.65;;;;;;;;;;5024557;28;20532;-70
2023/04/25 03:13:10;;;;;;;39.25;17.08;;;;;;;;;;5022997;28;20053;-70
2023/04/25 03:15:37;;;;;;;35.20;15.57;;;;;;;;;;5022450;28;20471;-71
2023/04/25 03:18:04;;;;;;;39.85;15.80;;;;;;;;;;5024085;28;20025;-71
2023/04/25 03:20:30;;;;;;;40.83;16.67;;;;;;;;;;5022873;28;20045;-72
2023/04/25 03:22:57;;;;;;;40.97;15.80;;;;;;;;;;5022150;28;20022;-72
2023/04/25 03:25:24;;;;;;;40.60;17.50;;;;;;;;;;5023438;28;20386;-70
2023/04/25 03:27:50;;;;;;;41.20;16.30;;;;;;;;;;5022717;28;20025;-72
2023/04/25 03:30:17;;;;;;;33.17;14.32;;;;;;;;;;5021735;28;20507;-71
2023/04/25 03:32:44;;;;;;;36.30;13.93;;;;;;;;;;5023649;28;20025;-71
2023/04/25 03:35:10;;;;;;;37.65;15.93;;;;;;;;;;5027642;28;20426;-71
2023/04/25 03:37:37;;;;;;;29.17;12.30;;;;;;;;;;5021062;28;20030;-72
2023/04/25 03:40:04;;;;;;;28.67;11.88;;;;;;;;;;5015746;28;20116;-72
2023/04/25 03:42:31;;;;;;;27.60;11.70;;;;;;;;;;5013963;28;20022;-72
2023/04/25 03:44:57;;;;;;;22.55;12.00;;;;;;;;;;5023529;28;20017;-71
2023/04/25 03:47:24;;;;;;;21.42;11.50;;;;;;;;;;5021726;28;20426;-72
2023/04/25 03:49:51;;;;;;;21.10;10.95;;;;;;;;;;5022405;28;20079;-74
2023/04/25 03:52:18;;;;;;;20.52;10.05;;;;;;;;;;5025082;28;20041;-73
2023/04/25 03:54:44;;;;;;;22.08;10.68;;;;;;;;;;5027410;28;20345;-72
2023/04/25 03:57:11;;;;;;;22.33;11.00;;;;;;;;;;5026823;28;20105;-72
2023/04/25 03:59:38;;;;;;;17.08;8.27;;;;;;;;;;5026438;28;20128;-71
2023/04/25 04:02:04;;;;;;;17.20;8.85;;;;;;;;;;5024708;28;20502;-71
2023/04/25 04:04:31;;;;;;;19.38;9.10;;;;;;;;;;5023532;28;20097;-71
2023/04/25 04:06:57;;;;;;;16.17;8.30;;;;;;;;;;5025175;28;20439;-70
2023/04/25 04:09:25;;;;;;;20.63;8.63;;;;;;;;;;5046588;28;20037;-70
2023/04/25 04:11:51;;;;;;;26.13;10.57;;;;;;;;;;5043934;28;20040;-71
2023/04/25 04:14:18;;;;;;;13.50;7.40;;;;;;;;;;5045478;28;20059;-69
2023/04/25 04:16:44;;;;;;;19.67;9.00;;;;;;;;;;5045643;28;20026;-68
2023/04/25 04:19:11;;;;;;;36.45;13.52;;;;;;;;;;5043971;28;20053;-68
2023/04/25 04:21:38;;;;;;;20.75;9.35;;;;;;;;;;5045309;28;20021;-69
2023/04/25 04:24:05;;;;;;;21.52;7.80;;;;;;;;;;5045481;28;20326;-69
2023/04/25 04:26:34;;;;;;;16.10;8.38;;;;;;;;;;5043993;28;20504;-73
2023/04/25 04:29:01;;;;;;;15.13;8.05;;;;;;;;;;5045163;28;20093;-71
2023/04/25 04:31:27;;;;;;;13.18;7.35;;;;;;;;;;5046333;28;20124;-69
2023/04/25 04:33:54;;;;;;;13.10;7.07;;;;;;;;;;5044413;28;20110;-70
2023/04/25 04:36:21;;;;;;;13.13;6.72;;;;;;;;;;5043293;28;20021;-69
2023/04/25 04:38:48;;;;;;;12.65;6.57;;;;;;;;;;5037837;28;20028;-68
2023/04/25 04:41:15;;;;;;;11.63;6.78;;;;;;;;;;5037730;28;20096;-69
2023/04/25 04:43:41;;;;;;;11.65;6.55;;;;;;;;;;5042420;28;20029;-69
2023/04/25 04:46:12;;;;;;;13.90;6.70;;;;;;;;;;5038268;28;20013;-68
2023/04/25 04:48:39;;;;;;;10.20;6.45;;;;;;;;;;5039552;28;20025;-66
2023/04/25 04:51:06;;;;;;;10.20;6.80;;;;;;;;;;5051179;28;20031;-66
2023/04/25 04:53:33;;;;;;;9.95;5.88;;;;;;;;;;5050027;28;20099;-70
2023/04/25 04:55:59;;;;;;;15.23;6.40;;;;;;;;;;5051097;28;20496;-66
2023/04/25 04:58:29;;;;;;;11.05;5.40;;;;;;;;;;5049569;28;20052;-68
2023/04/25 05:00:55;;;;;;;8.15;5.40;;;;;;;;;;5044745;28;20028;-66
2023/04/25 05:03:23;;;;;;;13.02;6.28;;;;;;;;;;5044542;28;20040;-68
2023/04/25 05:05:49;;;;;;;16.67;7.18;;;;;;;;;;5043480;28;20021;-67
2023/04/25 05:08:16;;;;;;;29.08;10.70;;;;;;;;;;5050996;28;20045;-69
2023/04/25 05:10:43;;;;;;;40.70;18.15;;;;;;;;;;5045909;28;20097;-69
2023/04/25 05:13:09;;;;;;;24.40;18.10;;;;;;;;;;5045498;28;20067;-70
2023/04/25 05:15:36;;;;;;;22.50;15.93;;;;;;;;;;5045012;28;20033;-69
2023/04/25 05:18:02;;;;;;;21.98;15.95;;;;;;;;;;5046060;28;20079;-68
2023/04/25 05:20:29;;;;;;;38.67;32.25;;;;;;;;;;5046256;28;20024;-71
2023/04/25 05:22:56;;;;;;;13.98;8.52;;;;;;;;;;5046552;28;20063;-69
2023/04/25 05:25:23;;;;;;;12.93;6.68;;;;;;;;;;5044616;28;20071;-70
2023/04/25 05:27:50;;;;;;;11.90;7.22;;;;;;;;;;5047730;28;20021;-70
2023/04/25 05:30:17;;;;;;;10.77;7.40;;;;;;;;;;5050874;28;20024;-68
2023/04/25 05:32:44;;;;;;;13.50;8.10;;;;;;;;;;5045666;28;20082;-69
2023/04/25 05:35:10;;;;;;;16.70;7.10;;;;;;;;;;5046327;28;20026;-70
2023/04/25 05:37:37;;;;;;;15.88;6.85;;;;;;;;;;5044175;28;20025;-70
2023/04/25 05:40:06;;;;;;;12.93;6.40;;;;;;;;;;5045438;28;20028;-71
2023/04/25 05:42:33;;;;;;;9.48;6.00;;;;;;;;;;5046019;28;20490;-67
2023/04/25 05:45:00;;;;;;;11.15;7.70;;;;;;;;;;5043869;28;20601;-71
2023/04/25 05:47:27;;;;;;;10.05;6.07;;;;;;;;;;5045868;28;20092;-69
2023/04/25 05:49:53;;;;;;;10.02;6.18;;;;;;;;;;5048408;28;20021;-69
2023/04/25 05:52:20;;;;;;;9.10;5.72;;;;;;;;;;5045599;28;20056;-70
2023/04/25 05:54:47;;;;;;;11.77;6.00;;;;;;;;;;5038065;28;20039;-72
2023/04/25 05:57:25;;;;;;;8.90;5.40;;;;;;;;;;5038048;28;20024;-70
2023/04/25 05:59:52;;;;;;;6.78;4.65;;;;;;;;;;5035267;28;20436;-70
2023/04/25 06:02:20;;;;;;;7.57;4.88;;;;;;;;;;5042546;28;20025;-71
2023/04/25 06:04:47;;;;;;;8.73;5.18;;;;;;;;;;5048168;28;20043;-71
2023/04/25 06:07:14;;;;;;;6.53;4.60;;;;;;;;;;5047231;28;20031;-69
2023/04/25 06:09:40;;;;;;;7.68;5.53;;;;;;;;;;5046135;28;20124;-74
2023/04/25 06:12:07;;;;;;;8.82;5.20;;;;;;;;;;5046478;28;20078;-70
2023/04/25 06:14:34;;;;;;;6.15;4.80;;;;;;;;;;5045494;28;20082;-72
2023/04/25 06:17:06;;;;;;;7.75;4.90;;;;;;;;;;5045798;28;20327;-71
2023/04/25 06:19:33;;;;;;;5.55;4.88;;;;;;;;;;5046540;28;20029;-70
2023/04/25 06:22:00;;;;;;;8.07;4.93;;;;;;;;;;5046067;28;20040;-73
2023/04/25 06:24:26;;;;;;;14.45;9.32;;;;;;;;;;5045646;28;20232;-72
2023/04/25 06:26:53;;;;;;;10.35;7.00;;;;;;;;;;5046465;28;20373;-72
2023/04/25 06:29:20;;;;;;;9.48;6.50;;;;;;;;;;5047935;28;20143;-70
2023/04/25 06:31:47;;;;;;;13.35;8.35;;;;;;;;;;5044666;28;20022;-71
2023/04/25 06:34:13;;;;;;;18.45;11.23;;;;;;;;;;5044602;28;20049;-69
2023/04/25 06:36:41;;;;;;;12.55;8.00;;;;;;;;;;5045003;28;20374;-69
2023/04/25 06:39:08;;;;;;;16.20;9.40;;;;;;;;;;5046619;28;20082;-68
2023/04/25 06:41:35;;;;;;;12.63;8.13;;;;;;;;;;5045247;28;20478;-69
2023/04/25 06:44:02;;;;;;;10.38;6.50;;;;;;;;;;5046023;28;20027;-69
2023/04/25 06:46:31;;;;;;;8.35;5.50;;;;;;;;;;5043429;28;20049;-70
2023/04/25 06:48:57;;;;;;;7.20;5.40;;;;;;;;;;5041735;28;20035;-68
2023/04/25 06:51:24;;;;;;;8.20;6.10;;;;;;;;;;5041906;28;20017;-69
2023/04/25 06:53:51;;;;;;;9.77;6.15;;;;;;;;;;5043548;28;20021;-70
2023/04/25 06:56:17;;;;;;;11.27;6.50;;;;;;;;;;5040905;28;20485;-69
2023/04/25 06:58:44;;;;;;;10.88;6.45;;;;;;;;;;5042764;28;20031;-70
2023/04/25 07:01:11;;;;;;;9.80;6.50;;;;;;;;;;5043917;28;20385;-69
2023/04/25 07:03:37;;;;;;;11.32;6.95;;;;;;;;;;5045951;28;20018;-70
2023/04/25 07:06:04;;;;;;;11.88;6.80;;;;;;;;;;5042448;28;20074;-71
2023/04/25 07:08:31;;;;;;;13.15;7.40;;;;;;;;;;5042583;28;20041;-72
2023/04/25 07:10:58;;;;;;;11.57;7.40;;;;;;;;;;5043965;28;20075;-71
2023/04/25 07:13:25;;;;;;;23.30;11.52;;;;;;;;;;5045349;28;20056;-71
2023/04/25 07:15:51;;;;;;;18.83;9.60;;;;;;;;;;5043172;28;20032;-70
2023/04/25 07:18:18;;;;;;;16.88;9.43;;;;;;;;;;5041906;28;20037;-69
2023/04/25 07:20:45;;;;;;;21.10;11.27;;;;;;;;;;5048392;28;20029;-71
2023/04/25 07:23:11;;;;;;;19.45;11.07;;;;;;;;;;5042748;28;20025;-69
2023/04/25 07:25:38;;;;;;;20.20;10.45;;;;;;;;;;5042042;28;20026;-70
2023/04/25 07:28:05;;;;;;;20.13;14.77;;;;;;;;;;5047243;28;20016;-72
2023/04/25 07:30:31;;;;;;;15.57;9.80;;;;;;;;;;5042316;28;20022;-72
2023/04/25 07:32:58;;;;;;;15.60;9.63;;;;;;;;;;5037401;28;20090;-70
2023/04/25 07:35:24;;;;;;;395.70;282.48;;;;;;;;;;5043140;28;20021;-71
2023/04/25 07:37:51;;;;;;;265.35;148.60;;;;;;;;;;5056873;28;20111;-70
2023/04/25 07:40:18;;;;;;;32.63;19.38;;;;;;;;;;5044824;28;20029;-71
2023/04/25 07:42:44;;;;;;;14.02;8.90;;;;;;;;;;5051603;28;20025;-72
2023/04/25 07:45:11;;;;;;;215.40;127.70;;;;;;;;;;5049990;28;20466;-68
2023/04/25 07:47:38;;;;;;;26.77;15.90;;;;;;;;;;5049056;28;20115;-70
2023/04/25 07:50:05;;;;;;;117.85;73.35;;;;;;;;;;5047727;28;20017;-70
2023/04/25 07:52:32;;;;;;;15.13;9.77;;;;;;;;;;5045949;28;20032;-66
2023/04/25 07:54:58;;;;;;;12.70;7.38;;;;;;;;;;5053342;28;20104;-67
2023/04/25 07:57:25;;;;;;;12.95;7.90;;;;;;;;;;5050511;28;20024;-70
2023/04/25 07:59:52;;;;;;;14.20;7.45;;;;;;;;;;5046784;28;20033;-68
2023/04/25 08:02:18;;;;;;;15.63;7.28;;;;;;;;;;5048346;28;20029;-72
2023/04/25 08:04:46;;;;;;;22.90;14.13;;;;;;;;;;5047476;28;20021;-69
2023/04/25 08:07:12;;;;;;;21.55;10.98;;;;;;;;;;5046594;28;20437;-70
2023/04/25 08:09:39;;;;;;;32.60;21.10;;;;;;;;;;5043062;28;20051;-70
2023/04/25 08:12:06;;;;;;;29.85;16.00;;;;;;;;;;5042879;28;20064;-67
2023/04/25 08:14:35;;;;;;;21.30;12.85;;;;;;;;;;5044025;28;20060;-72
2023/04/25 08:17:03;;;;;;;23.00;15.32;;;;;;;;;;5047495;28;20040;-70
2023/04/25 08:19:30;;;;;;;21.05;12.63;;;;;;;;;;5047407;28;20083;-71
2023/04/25 08:21:57;;;;;;;13.68;9.27;;;;;;;;;;5048968;28;20025;-70
2023/04/25 08:24:24;;;;;;;12.93;7.50;;;;;;;;;;5042675;28;20029;-70
2023/04/25 08:26:50;;;;;;;10.57;6.68;;;;;;;;;;5050951;28;20024;-70
2023/04/25 08:29:17;;;;;;;10.80;6.18;;;;;;;;;;5041812;28;20032;-72
2023/04/25 08:31:43;;;;;;;9.55;5.60;;;;;;;;;;5043045;28;20540;-71
2023/04/25 08:34:10;;;;;;;9.43;5.53;;;;;;;;;;5046899;28;20018;-70
2023/04/25 08:36:37;;;;;;;8.38;5.78;;;;;;;;;;5040038;28;20025;-69
2023/04/25 08:39:04;;;;;;;9.48;5.70;;;;;;;;;;5042816;28;20022;-69
2023/04/25 08:41:31;;;;;;;7.70;5.18;;;;;;;;;;5043699;28;20084;-68
2023/04/25 08:44:00;;;;;;;11.52;5.32;;;;;;;;;;5044525;28;20052;-71
2023/04/25 08:46:26;;;;;;;8.70;6.28;;;;;;;;;;5045212;28;20055;-70
2023/04/25 08:48:54;;;;;;;7.80;5.53;;;;;;;;;;5042700;28;20025;-69
2023/04/25 08:51:24;;;;;;;7.57;4.80;;;;;;;;;;5046914;28;20017;-71
2023/04/25 08:53:53;;;;;;;7.82;5.40;;;;;;;;;;5044429;28;20018;-69
2023/04/25 08:56:22;;;;;;;29.02;14.68;;;;;;;;;;5041789;28;20028;-67
2023/04/25 08:58:50;;;;;;;16.88;8.00;;;;;;;;;;5040978;28;20079;-66
2023/04/25 09:01:17;;;;;;;18.33;9.48;;;;;;;;;;5042864;28;20033;-67
2023/04/25 09:03:44;;;;;;;11.93;8.52;;;;;;;;;;5045417;28;20033;-68
2023/04/25 09:06:12;;;;;;;17.45;7.53;;;;;;;;;;5045567;28;20379;-68
2023/04/25 09:08:40;;;;;;;15.27;9.10;;;;;;;;;;5043442;28;20051;-68
2023/04/25 09:11:07;;;;;;;14.18;7.40;;;;;;;;;;5047933;28;20226;-72
2023/04/25 09:13:34;;;;;;;13.57;7.93;;;;;;;;;;5047132;28;20066;-67
2023/04/25 09:16:01;;;;;;;11.43;7.50;;;;;;;;;;5047647;28;20033;-67
2023/04/25 09:18:31;;;;;;;10.40;6.35;;;;;;;;;;5050157;28;20478;-67
2023/04/25 09:20:59;;;;;;;10.40;7.22;;;;;;;;;;5051964;28;20036;-67
2023/04/25 09:23:25;;;;;;;9.48;7.30;;;;;;;;;;5043528;28;20429;-66
2023/04/25 09:25:53;;;;;;;12.05;8.10;;;;;;;;;;5033031;28;20057;-66
2023/04/25 09:28:26;;;;;;;10.30;7.32;;;;;;;;;;5042421;28;20530;-68
2023/04/25 09:30:58;;;;;;;71.07;43.88;;;;;;;;;;5042989;28;20029;-66
2023/04/25 09:33:29;;;;;;;9.93;6.93;;;;;;;;;;5051080;28;20036;-68
2023/04/25 09:36:02;;;;;;;43.63;31.92;;;;;;;;;;5053888;28;20052;-67
2023/04/25 09:38:30;;;;;;;41.17;30.08;;;;;;;;;;5053728;28;20035;-67
2023/04/25 09:40:57;;;;;;;15.02;9.77;;;;;;;;;;5052478;28;20513;-68
2023/04/25 09:43:24;;;;;;;13.43;7.72;;;;;;;;;;5046321;28;20040;-68
2023/04/25 09:45:51;;;;;;;10.93;8.07;;;;;;;;;;5044843;28;20067;-68
2023/04/25 09:48:20;;;;;;;115.57;95.80;;;;;;;;;;5034025;28;20028;-69
2023/04/25 09:51:07;;;;;;;18.90;15.25;;;;;;;;;;5034215;28;20018;-68
2023/04/25 09:53:42;;;;;;;88.38;61.72;;;;;;;;;;5053279;28;20424;-68
2023/04/25 09:56:10;;;;;;;51.47;42.53;;;;;;;;;;5044789;28;20032;-70
2023/04/25 09:58:37;;;;;;;45.25;33.85;;;;;;;;;;5033601;28;20109;-68
2023/04/25 10:01:06;;;;;;;14.15;10.18;;;;;;;;;;5051474;28;20072;-68
2023/04/25 10:03:33;;;;;;;10.10;6.72;;;;;;;;;;5050135;28;20052;-68
2023/04/25 10:06:01;;;;;;;9.45;6.45;;;;;;;;;;5053400;28;20021;-70
2023/04/25 10:08:36;;;;;;;13.15;8.25;;;;;;;;;;5052629;28;20040;-69
2023/04/25 10:11:04;;;;;;;22.45;11.93;;;;;;;;;;5053622;28;20025;-66
2023/04/25 10:13:32;;;;;;;25.95;15.23;;;;;;;;;;5053773;28;20498;-67
2023/04/25 10:16:00;;;;;;;35.15;20.67;;;;;;;;;;5053962;28;20025;-67
2023/04/25 10:21:00;;;;;;;33.58;19.38;;;;;;;;;;5090830;28;20436;-65
2023/04/25 10:23:28;;;;;;;37.63;19.10;;;;;;;;;;5090453;28;20035;-67
2023/04/25 10:25:55;;;;;;;34.88;19.52;;;;;;;;;;5090639;28;20030;-65
2023/04/25 10:28:21;;;;;;;46.70;19.23;;;;;;;;;;5090504;28;20048;-69
2023/04/25 10:30:58;;;;;;;28.15;14.48;;;;;;;;;;5090034;28;20012;-67
2023/04/25 10:33:35;;;;;;;20.90;11.77;;;;;;;;;;5083768;28;20029;-65
2023/04/25 10:36:14;;;;;;;18.05;9.85;;;;;;;;;;5072301;28;20021;-68
2023/04/25 10:38:43;;;;;;;17.05;9.77;;;;;;;;;;5072627;28;20405;-68
2023/04/25 10:41:10;;;;;;;16.50;10.07;;;;;;;;;;5080889;28;20079;-66
2023/04/25 10:43:37;;;;;;;18.77;10.50;;;;;;;;;;5075641;28;20020;-66
2023/04/25 10:46:13;;;;;;;32.20;20.10;;;;;;;;;;5078034;28;20035;-66
2023/04/25 10:48:46;;;;;;;20.38;11.60;;;;;;;;;;5087802;28;20020;-65
2023/04/25 10:51:17;;;;;;;25.95;15.85;;;;;;;;;;5077733;28;20173;-66
2023/04/25 10:53:45;;;;;;;35.63;25.20;;;;;;;;;;5083971;28;20096;-67
2023/04/25 10:56:21;;;;;;;44.75;27.33;;;;;;;;;;5072090;28;20024;-65
2023/04/25 10:58:49;;;;;;;112.60;70.75;;;;;;;;;;5075577;28;20031;-67
2023/04/25 11:01:16;;;;;;;109.00;59.65;;;;;;;;;;5067746;28;20424;-68
2023/04/25 11:03:44;;;;;;;167.45;96.15;;;;;;;;;;5069615;28;20021;-68
2023/04/25 11:06:19;;;;;;;103.97;61.35;;;;;;;;;;5070954;28;20055;-66
2023/04/25 11:08:50;;;;;;;63.05;34.13;;;;;;;;;;5068168;28;20036;-68
2023/04/25 11:11:17;;;;;;;84.90;41.70;;;;;;;;;;5071895;28;20138;-67
2023/04/25 11:13:44;;;;;;;57.35;32.53;;;;;;;;;;5079471;28;20029;-66
2023/04/25 11:16:11;;;;;;;52.05;30.75;;;;;;;;;;5071413;28;20043;-65
2023/04/25 11:18:38;;;;;;;44.17;24.85;;;;;;;;;;5089362;28;20081;-67
2023/04/25 11:21:06;;;;;;;28.10;15.68;;;;;;;;;;5089776;28;20436;-68
2023/04/25 11:23:32;;;;;;;31.73;19.85;;;;;;;;;;5101573;28;20753;-68
2023/04/25 11:26:01;;;;;;;100.07;53.65;;;;;;;;;;5087674;28;20035;-66
2023/04/25 11:28:27;;;;;;;99.30;56.50;;;;;;;;;;5106564;28;20495;-70
2023/04/25 11:30:54;;;;;;;108.68;61.78;;;;;;;;;;5083655;28;20067;-67
2023/04/25 11:33:25;;;;;;;121.15;68.32;;;;;;;;;;5086213;28;20377;-66
2023/04/25 11:35:54;;;;;;;92.63;52.28;;;;;;;;;;5090429;28;20027;-68
2023/04/25 11:38:20;;;;;;;90.65;46.88;;;;;;;;;;5079085;28;20033;-70
2023/04/25 11:40:55;;;;;;;82.00;45.70;;;;;;;;;;5087132;28;20036;-68
2023/04/25 11:43:22;;;;;;;99.70;54.92;;;;;;;;;;5085902;28;20066;-67
2023/04/25 11:45:52;;;;;;;112.85;64.00;;;;;;;;;;5085524;28;20024;-65
2023/04/25 11:48:20;;;;;;;108.10;58.60;;;;;;;;;;5078211;28;20074;-67
2023/04/25 11:50:47;;;;;;;87.35;51.35;;;;;;;;;;5064738;28;20116;-66
2023/04/25 11:53:13;;;;;;;130.70;71.40;;;;;;;;;;5065171;28;20157;-66
2023/04/25 11:55:40;;;;;;;180.02;110.80;;;;;;;;;;5070526;28;20465;-67
2023/04/25 11:58:08;;;;;;;151.50;108.32;;;;;;;;;;5064213;28;20485;-66
2023/04/25 12:00:35;;;;;;;144.63;91.68;;;;;;;;;;5070347;28;20064;-65
2023/04/25 12:03:02;;;;;;;107.10;61.80;;;;;;;;;;5062339;28;20053;-68
2023/04/25 12:05:33;;;;;;;97.70;49.97;;;;;;;;;;5073522;28;20021;-69
2023/04/25 12:08:12;;;;;;;94.47;48.40;;;;;;;;;;5065650;28;20025;-69
2023/04/25 12:10:40;;;;;;;85.45;52.40;;;;;;;;;;5064229;28;20104;-67
2023/04/25 12:13:27;;;;;;;101.03;57.42;;;;;;;;;;5066684;28;20038;-67
2023/04/25 12:15:56;;;;;;;83.25;50.60;;;;;;;;;;5062946;28;20031;-68
2023/04/25 12:18:27;;;;;;;93.45;59.10;;;;;;;;;;5065553;28;20100;-67
2023/04/25 12:20:54;;;;;;;79.60;46.70;;;;;;;;;;5066748;28;20681;-66
2023/04/25 12:23:27;;;;;;;67.15;40.95;;;;;;;;;;5066471;28;20150;-67
2023/04/25 12:25:53;;;;;;;73.63;39.65;;;;;;;;;;5061216;28;20090;-66
2023/04/25 12:28:23;;;;;;;63.17;39.63;;;;;;;;;;5066394;28;20020;-69
2023/04/25 12:30:53;;;;;;;127.43;77.80;;;;;;;;;;5063182;28;20040;-68
2023/04/25 12:33:20;;;;;;;95.68;53.17;;;;;;;;;;5063985;28;20025;-66
2023/04/25 12:35:47;;;;;;;117.03;71.80;;;;;;;;;;5063017;28;20132;-66
2023/04/25 12:38:34;;;;;;;171.32;111.00;;;;;;;;;;5069906;28;20066;-66
2023/04/25 12:41:00;;;;;;;97.50;54.30;;;;;;;;;;5060832;28;20037;-68
2023/04/25 12:43:27;;;;;;;116.28;61.15;;;;;;;;;;5072133;28;20047;-70
2023/04/25 12:45:54;;;;;;;115.40;61.72;;;;;;;;;;5059243;28;20025;-69
2023/04/25 12:48:21;;;;;;;126.97;72.35;;;;;;;;;;5070548;28;20017;-67
2023/04/25 12:50:49;;;;;;;138.35;78.30;;;;;;;;;;5058600;28;20501;-68
2023/04/25 12:53:16;;;;;;;124.97;73.63;;;;;;;;;;5057337;28;20063;-70
2023/04/25 12:55:42;;;;;;;123.72;68.25;;;;;;;;;;5055558;28;20028;-69
2023/04/25 12:58:10;;;;;;;97.32;56.88;;;;;;;;;;5054907;28;20116;-68
2023/04/25 13:00:36;;;;;;;102.20;66.70;;;;;;;;;;5054246;28;20028;-69
2023/04/25 13:03:04;;;;;;;136.30;93.30;;;;;;;;;;5054582;28;20028;-66
2023/04/25 13:05:31;;;;;;;117.75;76.35;;;;;;;;;;5054364;28;20028;-66
2023/04/25 13:07:57;;;;;;;101.05;62.13;;;;;;;;;;5062873;28;20024;-65
2023/04/25 13:10:24;;;;;;;96.72;58.42;;;;;;;;;;5067618;28;20030;-66
2023/04/25 13:12:51;;;;;;;91.85;50.60;;;;;;;;;;5072223;28;20035;-66
2023/04/25 13:15:18;;;;;;;63.58;38.90;;;;;;;;;;5073861;28;20385;-67
2023/04/25 13:17:44;;;;;;;55.83;32.22;;;;;;;;;;5074144;28;20445;-70
2023/04/25 13:20:11;;;;;;;52.25;30.05;;;;;;;;;;5073809;28;20083;-67
2023/04/25 13:22:38;;;;;;;77.63;43.55;;;;;;;;;;5073981;28;20025;-70
2023/04/25 13:25:06;;;;;;;82.95;51.40;;;;;;;;;;5074314;28;20027;-67
2023/04/25 13:27:33;;;;;;;86.13;59.08;;;;;;;;;;5074152;28;20017;-69
2023/04/25 13:30:06;;;;;;;105.85;63.53;;;;;;;;;;5074058;28;20044;-66
2023/04/25 13:32:36;;;;;;;108.40;64.35;;;;;;;;;;5074311;28;20119;-66
2023/04/25 13:35:03;;;;;;;81.70;44.47;;;;;;;;;;5073339;28;20031;-71
2023/04/25 13:37:32;;;;;;;73.50;36.40;;;;;;;;;;5073336;28;20048;-68
2023/04/25 13:40:00;;;;;;;61.80;32.67;;;;;;;;;;5073332;28;20081;-68
2023/04/25 13:42:27;;;;;;;59.67;31.15;;;;;;;;;;5073870;28;20549;-68
2023/04/25 13:44:53;;;;;;;56.45;29.65;;;;;;;;;;5073487;28;20029;-67
2023/04/25 13:47:20;;;;;;;51.75;31.40;;;;;;;;;;5067543;28;20032;-69
2023/04/25 13:49:46;;;;;;;63.08;32.13;;;;;;;;;;5053541;28;20036;-67
2023/04/25 13:52:13;;;;;;;69.28;34.55;;;;;;;;;;5053077;28;20377;-70
2023/04/25 13:54:40;;;;;;;75.93;42.22;;;;;;;;;;5053007;28;20107;-66
2023/04/25 13:57:07;;;;;;;91.90;51.65;;;;;;;;;;5055934;28;20043;-66
2023/04/25 13:59:34;;;;;;;92.05;55.13;;;;;;;;;;5063623;28;20428;-66
2023/04/25 14:02:00;;;;;;;112.10;59.03;;;;;;;;;;5073876;28;20070;-66
2023/04/25 14:04:27;;;;;;;111.70;64.18;;;;;;;;;;5073689;28;20028;-66
2023/04/25 14:06:55;;;;;;;99.40;58.83;;;;;;;;;;5073971;28;20028;-65
2023/04/25 14:09:25;;;;;;;94.38;53.75;;;;;;;;;;5073175;28;20067;-67
2023/04/25 14:11:52;;;;;;;90.82;46.58;;;;;;;;;;5073269;28;20056;-67
2023/04/25 14:14:19;;;;;;;67.85;40.58;;;;;;;;;;5072517;28;20044;-66
2023/04/25 14:16:48;;;;;;;103.05;49.85;;;;;;;;;;5073037;28;20029;-65
2023/04/25 14:19:22;;;;;;;73.95;36.22;;;;;;;;;;5071940;28;20048;-66
2023/04/25 14:21:48;;;;;;;52.72;32.97;;;;;;;;;;5073282;28;20028;-66
2023/04/25 14:24:15;;;;;;;46.42;26.77;;;;;;;;;;5073198;28;20025;-66
2023/04/25 14:26:44;;;;;;;44.92;25.55;;;;;;;;;;5073094;28;20025;-66